sensor_id;sensor_type;location;lat;lon;timestamp;temperature;humidity
11229;DHT22;5671;47.936;8.716;2023-03-16T00:01:02;-2.30;78.80
11229;DHT22;5671;47.936;8.716;2023-03-16T00:03:31;-2.30;78.90
11229;DHT22;5671;47.936;8.716;2023-03-16T00:05:58;-2.30;79.00
11229;DHT22;5671;47.936;8.716;2023-03-16T00:08:25;-2.30;78.90
11229;DHT22;5671;47.936;8.716;2023-03-16T00:10:52;-2.30;78.80
11229;DHT22;5671;47.936;8.716;2023-03-16T00:13:20;-2.30;79.10
11229;DHT22;5671;47.936;8.716;2023-03-16T00:15:52;-2.40;79.20
11229;DHT22;5671;47.936;8.716;2023-03-16T00:18:20;-2.30;79.30
11229;DHT22;5671;47.936;8.716;2023-03-16T00:20:55;-2.40;79.70
11229;DHT22;5671;47.936;8.716;2023-03-16T00:23:27;-2.40;79.30
11229;DHT22;5671;47.936;8.716;2023-03-16T00:25:54;-2.40;79.40
11229;DHT22;5671;47.936;8.716;2023-03-16T00:28:22;-2.40;79.60
11229;DHT22;5671;47.936;8.716;2023-03-16T00:30:49;-2.40;79.00
11229;DHT22;5671;47.936;8.716;2023-03-16T00:33:16;-2.40;79.40
11229;DHT22;5671;47.936;8.716;2023-03-16T00:35:45;-2.40;79.30
11229;DHT22;5671;47.936;8.716;2023-03-16T00:38:16;-2.40;79.30
11229;DHT22;5671;47.936;8.716;2023-03-16T00:40:43;-2.50;78.90
11229;DHT22;5671;47.936;8.716;2023-03-16T00:43:09;-2.50;79.30
11229;DHT22;5671;47.936;8.716;2023-03-16T00:45:37;-2.50;79.70
11229;DHT22;5671;47.936;8.716;2023-03-16T00:48:03;-2.50;79.40
11229;DHT22;5671;47.936;8.716;2023-03-16T00:50:31;-2.50;79.60
11229;DHT22;5671;47.936;8.716;2023-03-16T00:52:58;-2.50;79.70
11229;DHT22;5671;47.936;8.716;2023-03-16T00:55:27;-2.50;79.90
11229;DHT22;5671;47.936;8.716;2023-03-16T00:57:54;-2.50;79.80
11229;DHT22;5671;47.936;8.716;2023-03-16T01:00:21;-2.60;80.90
11229;DHT22;5671;47.936;8.716;2023-03-16T01:02:52;-2.60;79.90
11229;DHT22;5671;47.936;8.716;2023-03-16T01:05:19;-2.60;79.70
11229;DHT22;5671;47.936;8.716;2023-03-16T01:07:46;-2.70;80.40
11229;DHT22;5671;47.936;8.716;2023-03-16T01:10:13;-2.60;79.90
11229;DHT22;5671;47.936;8.716;2023-03-16T01:12:42;-2.70;79.60
11229;DHT22;5671;47.936;8.716;2023-03-16T01:15:10;-2.70;79.50
11229;DHT22;5671;47.936;8.716;2023-03-16T01:17:38;-2.70;79.50
11229;DHT22;5671;47.936;8.716;2023-03-16T01:20:07;-2.70;79.60
11229;DHT22;5671;47.936;8.716;2023-03-16T01:22:36;-2.80;79.90
11229;DHT22;5671;47.936;8.716;2023-03-16T01:25:03;-2.80;79.90
11229;DHT22;5671;47.936;8.716;2023-03-16T01:27:30;-2.80;80.20
11229;DHT22;5671;47.936;8.716;2023-03-16T01:29:59;-2.80;79.80
11229;DHT22;5671;47.936;8.716;2023-03-16T01:32:26;-2.80;79.70
11229;DHT22;5671;47.936;8.716;2023-03-16T01:34:53;-2.80;80.30
11229;DHT22;5671;47.936;8.716;2023-03-16T01:37:20;-2.90;80.30
11229;DHT22;5671;47.936;8.716;2023-03-16T01:39:47;-2.90;80.00
11229;DHT22;5671;47.936;8.716;2023-03-16T01:42:14;-2.90;79.90
11229;DHT22;5671;47.936;8.716;2023-03-16T01:44:53;-2.90;80.30
11229;DHT22;5671;47.936;8.716;2023-03-16T01:47:22;-3.00;80.30
11229;DHT22;5671;47.936;8.716;2023-03-16T01:49:50;-3.00;80.60
11229;DHT22;5671;47.936;8.716;2023-03-16T01:52:22;-3.00;81.10
11229;DHT22;5671;47.936;8.716;2023-03-16T01:54:51;-3.00;81.00
11229;DHT22;5671;47.936;8.716;2023-03-16T01:57:22;-3.10;79.90
11229;DHT22;5671;47.936;8.716;2023-03-16T01:59:54;-3.10;79.70
11229;DHT22;5671;47.936;8.716;2023-03-16T02:02:26;-3.10;80.20
11229;DHT22;5671;47.936;8.716;2023-03-16T02:04:58;-3.10;80.90
11229;DHT22;5671;47.936;8.716;2023-03-16T02:07:29;-3.10;80.90
11229;DHT22;5671;47.936;8.716;2023-03-16T02:10:00;-3.10;80.80
11229;DHT22;5671;47.936;8.716;2023-03-16T02:12:29;-3.20;81.40
11229;DHT22;5671;47.936;8.716;2023-03-16T02:14:56;-3.20;81.40
11229;DHT22;5671;47.936;8.716;2023-03-16T02:17:27;-3.20;81.60
11229;DHT22;5671;47.936;8.716;2023-03-16T02:20:05;-3.20;81.30
11229;DHT22;5671;47.936;8.716;2023-03-16T02:22:37;-3.20;81.00
11229;DHT22;5671;47.936;8.716;2023-03-16T02:25:07;-3.20;81.40
11229;DHT22;5671;47.936;8.716;2023-03-16T02:27:38;-3.20;81.20
11229;DHT22;5671;47.936;8.716;2023-03-16T02:30:10;-3.30;81.30
11229;DHT22;5671;47.936;8.716;2023-03-16T02:32:39;-3.30;81.60
11229;DHT22;5671;47.936;8.716;2023-03-16T02:35:08;-3.30;82.20
11229;DHT22;5671;47.936;8.716;2023-03-16T02:37:35;-3.30;82.40
11229;DHT22;5671;47.936;8.716;2023-03-16T02:40:12;-3.30;81.80
11229;DHT22;5671;47.936;8.716;2023-03-16T02:42:42;-3.30;81.20
11229;DHT22;5671;47.936;8.716;2023-03-16T02:45:12;-3.30;82.20
11229;DHT22;5671;47.936;8.716;2023-03-16T02:47:41;-3.30;82.50
11229;DHT22;5671;47.936;8.716;2023-03-16T02:50:10;-3.30;82.90
11229;DHT22;5671;47.936;8.716;2023-03-16T02:52:37;-3.30;82.70
11229;DHT22;5671;47.936;8.716;2023-03-16T02:55:06;-3.30;82.60
11229;DHT22;5671;47.936;8.716;2023-03-16T02:57:33;-3.40;82.70
11229;DHT22;5671;47.936;8.716;2023-03-16T03:00:00;-3.40;83.00
11229;DHT22;5671;47.936;8.716;2023-03-16T03:02:28;-3.40;82.60
11229;DHT22;5671;47.936;8.716;2023-03-16T03:04:56;-3.50;82.20
11229;DHT22;5671;47.936;8.716;2023-03-16T03:07:23;-3.50;81.30
11229;DHT22;5671;47.936;8.716;2023-03-16T03:09:56;-3.50;82.10
11229;DHT22;5671;47.936;8.716;2023-03-16T03:12:23;-3.50;82.30
11229;DHT22;5671;47.936;8.716;2023-03-16T03:14:50;-3.10;80.00
11229;DHT22;5671;47.936;8.716;2023-03-16T03:17:16;-3.50;80.80
11229;DHT22;5671;47.936;8.716;2023-03-16T03:19:44;-3.60;81.40
11229;DHT22;5671;47.936;8.716;2023-03-16T03:22:12;-3.00;80.00
11229;DHT22;5671;47.936;8.716;2023-03-16T03:24:43;-3.50;81.30
11229;DHT22;5671;47.936;8.716;2023-03-16T03:27:09;-3.60;83.00
11229;DHT22;5671;47.936;8.716;2023-03-16T03:29:36;-3.70;82.50
11229;DHT22;5671;47.936;8.716;2023-03-16T03:32:04;-3.70;82.00
11229;DHT22;5671;47.936;8.716;2023-03-16T03:34:31;-3.70;81.90
11229;DHT22;5671;47.936;8.716;2023-03-16T03:36:59;-3.70;81.80
11229;DHT22;5671;47.936;8.716;2023-03-16T03:41:53;-3.30;80.20
11229;DHT22;5671;47.936;8.716;2023-03-16T03:44:20;-3.70;81.70
11229;DHT22;5671;47.936;8.716;2023-03-16T03:46:48;-3.70;82.00
11229;DHT22;5671;47.936;8.716;2023-03-16T03:49:16;-3.80;81.80
11229;DHT22;5671;47.936;8.716;2023-03-16T03:51:43;-3.80;83.40
11229;DHT22;5671;47.936;8.716;2023-03-16T03:56:39;-3.30;80.90
11229;DHT22;5671;47.936;8.716;2023-03-16T03:59:06;-3.70;81.50
11229;DHT22;5671;47.936;8.716;2023-03-16T04:06:27;-3.30;80.60
11229;DHT22;5671;47.936;8.716;2023-03-16T04:08:54;-3.30;79.50
11229;DHT22;5671;47.936;8.716;2023-03-16T04:11:22;-3.50;80.80
11229;DHT22;5671;47.936;8.716;2023-03-16T04:13:50;-3.80;82.50
11229;DHT22;5671;47.936;8.716;2023-03-16T04:16:18;-3.90;82.90
11229;DHT22;5671;47.936;8.716;2023-03-16T04:18:45;-3.90;82.80
11229;DHT22;5671;47.936;8.716;2023-03-16T04:21:14;-3.90;82.70
11229;DHT22;5671;47.936;8.716;2023-03-16T04:23:41;-3.40;81.10
11229;DHT22;5671;47.936;8.716;2023-03-16T04:26:08;-3.80;82.30
11229;DHT22;5671;47.936;8.716;2023-03-16T04:28:37;-3.90;82.80
11229;DHT22;5671;47.936;8.716;2023-03-16T04:33:32;-3.50;80.20
11229;DHT22;5671;47.936;8.716;2023-03-16T04:36:00;-4.00;81.20
11229;DHT22;5671;47.936;8.716;2023-03-16T04:38:28;-4.00;81.40
11229;DHT22;5671;47.936;8.716;2023-03-16T04:40:54;-4.00;82.80
11229;DHT22;5671;47.936;8.716;2023-03-16T04:43:21;-4.10;83.10
11229;DHT22;5671;47.936;8.716;2023-03-16T04:45:50;-4.10;83.40
11229;DHT22;5671;47.936;8.716;2023-03-16T04:48:17;-4.10;82.20
11229;DHT22;5671;47.936;8.716;2023-03-16T04:50:44;-4.10;81.80
11229;DHT22;5671;47.936;8.716;2023-03-16T04:53:11;-4.10;82.30
11229;DHT22;5671;47.936;8.716;2023-03-16T04:55:38;-4.10;82.10
11229;DHT22;5671;47.936;8.716;2023-03-16T04:58:06;-4.10;82.40
11229;DHT22;5671;47.936;8.716;2023-03-16T05:00:33;-4.10;82.20
11229;DHT22;5671;47.936;8.716;2023-03-16T05:03:01;-4.20;82.90
11229;DHT22;5671;47.936;8.716;2023-03-16T05:05:28;-4.00;82.80
11229;DHT22;5671;47.936;8.716;2023-03-16T05:07:55;-4.20;82.70
11229;DHT22;5671;47.936;8.716;2023-03-16T05:10:22;-3.60;80.60
11229;DHT22;5671;47.936;8.716;2023-03-16T05:12:49;-3.60;80.90
11229;DHT22;5671;47.936;8.716;2023-03-16T05:15:16;-4.10;81.90
11229;DHT22;5671;47.936;8.716;2023-03-16T05:17:43;-4.20;82.60
11229;DHT22;5671;47.936;8.716;2023-03-16T05:20:13;-4.20;82.90
11229;DHT22;5671;47.936;8.716;2023-03-16T05:22:41;-4.30;82.40
11229;DHT22;5671;47.936;8.716;2023-03-16T05:25:09;-4.30;82.50
11229;DHT22;5671;47.936;8.716;2023-03-16T05:27:39;-4.30;82.90
11229;DHT22;5671;47.936;8.716;2023-03-16T05:30:08;-4.30;82.80
11229;DHT22;5671;47.936;8.716;2023-03-16T05:32:35;-4.30;83.20
11229;DHT22;5671;47.936;8.716;2023-03-16T05:35:02;-4.30;83.20
11229;DHT22;5671;47.936;8.716;2023-03-16T05:37:30;-4.30;83.10
11229;DHT22;5671;47.936;8.716;2023-03-16T05:39:57;-4.30;83.30
11229;DHT22;5671;47.936;8.716;2023-03-16T05:42:24;-4.30;83.30
11229;DHT22;5671;47.936;8.716;2023-03-16T05:44:51;-4.30;83.60
11229;DHT22;5671;47.936;8.716;2023-03-16T05:47:18;-3.80;81.40
11229;DHT22;5671;47.936;8.716;2023-03-16T05:49:45;-4.20;82.20
11229;DHT22;5671;47.936;8.716;2023-03-16T05:52:12;-4.30;82.80
11229;DHT22;5671;47.936;8.716;2023-03-16T05:54:40;-4.30;83.20
11229;DHT22;5671;47.936;8.716;2023-03-16T05:57:07;-3.90;81.70
11229;DHT22;5671;47.936;8.716;2023-03-16T05:59:34;-4.30;83.10
11229;DHT22;5671;47.936;8.716;2023-03-16T06:02:01;-4.30;83.00
11229;DHT22;5671;47.936;8.716;2023-03-16T06:04:28;-4.30;83.70
11229;DHT22;5671;47.936;8.716;2023-03-16T06:06:55;-4.30;83.40
11229;DHT22;5671;47.936;8.716;2023-03-16T06:09:22;-4.30;83.70
11229;DHT22;5671;47.936;8.716;2023-03-16T06:11:51;-4.30;83.30
11229;DHT22;5671;47.936;8.716;2023-03-16T06:14:17;-4.30;83.30
11229;DHT22;5671;47.936;8.716;2023-03-16T06:16:44;-4.20;83.20
11229;DHT22;5671;47.936;8.716;2023-03-16T06:19:11;-3.60;82.30
11229;DHT22;5671;47.936;8.716;2023-03-16T06:21:38;-4.00;83.20
11229;DHT22;5671;47.936;8.716;2023-03-16T06:24:05;-4.00;84.20
11229;DHT22;5671;47.936;8.716;2023-03-16T06:26:33;-4.00;84.90
11229;DHT22;5671;47.936;8.716;2023-03-16T06:29:02;-4.00;84.90
11229;DHT22;5671;47.936;8.716;2023-03-16T06:31:29;-3.90;84.70
11229;DHT22;5671;47.936;8.716;2023-03-16T06:33:58;-3.80;84.80
11229;DHT22;5671;47.936;8.716;2023-03-16T06:36:25;-3.20;83.00
11229;DHT22;5671;47.936;8.716;2023-03-16T06:38:52;-3.00;82.90
11229;DHT22;5671;47.936;8.716;2023-03-16T06:41:19;-2.90;82.90
11229;DHT22;5671;47.936;8.716;2023-03-16T06:43:46;-2.90;83.00
11229;DHT22;5671;47.936;8.716;2023-03-16T06:51:08;-2.10;82.30
11229;DHT22;5671;47.936;8.716;2023-03-16T06:53:35;-2.40;82.70
11229;DHT22;5671;47.936;8.716;2023-03-16T06:56:03;-2.30;83.50
11229;DHT22;5671;47.936;8.716;2023-03-16T06:58:30;-2.10;83.30
11229;DHT22;5671;47.936;8.716;2023-03-16T07:01:08;-1.90;82.80
11229;DHT22;5671;47.936;8.716;2023-03-16T07:04:00;-1.50;82.30
11229;DHT22;5671;47.936;8.716;2023-03-16T07:06:36;-1.30;81.40
11229;DHT22;5671;47.936;8.716;2023-03-16T07:09:06;-1.00;80.80
11229;DHT22;5671;47.936;8.716;2023-03-16T07:11:33;-0.80;79.90
11229;DHT22;5671;47.936;8.716;2023-03-16T07:14:05;-0.60;79.20
11229;DHT22;5671;47.936;8.716;2023-03-16T07:16:33;-0.40;79.10
11229;DHT22;5671;47.936;8.716;2023-03-16T07:19:02;-0.10;78.50
11229;DHT22;5671;47.936;8.716;2023-03-16T07:21:30;0.10;77.70
11229;DHT22;5671;47.936;8.716;2023-03-16T07:24:07;0.30;77.10
11229;DHT22;5671;47.936;8.716;2023-03-16T07:26:40;0.40;76.60
11229;DHT22;5671;47.936;8.716;2023-03-16T07:29:09;0.60;76.00
11229;DHT22;5671;47.936;8.716;2023-03-16T07:31:36;0.80;75.50
11229;DHT22;5671;47.936;8.716;2023-03-16T07:34:08;0.90;75.20
11229;DHT22;5671;47.936;8.716;2023-03-16T07:36:36;1.00;74.60
11229;DHT22;5671;47.936;8.716;2023-03-16T07:39:03;1.20;75.00
11229;DHT22;5671;47.936;8.716;2023-03-16T07:41:44;1.40;74.50
11229;DHT22;5671;47.936;8.716;2023-03-16T07:44:11;1.70;73.50
11229;DHT22;5671;47.936;8.716;2023-03-16T07:46:38;1.90;72.20
11229;DHT22;5671;47.936;8.716;2023-03-16T07:49:06;2.10;72.60
11229;DHT22;5671;47.936;8.716;2023-03-16T07:51:35;2.20;72.30
11229;DHT22;5671;47.936;8.716;2023-03-16T07:54:02;2.40;72.00
11229;DHT22;5671;47.936;8.716;2023-03-16T07:56:29;2.50;71.30
11229;DHT22;5671;47.936;8.716;2023-03-16T07:58:56;2.60;71.30
11229;DHT22;5671;47.936;8.716;2023-03-16T08:01:23;2.60;71.10
11229;DHT22;5671;47.936;8.716;2023-03-16T08:03:50;2.70;71.20
11229;DHT22;5671;47.936;8.716;2023-03-16T08:06:27;2.80;71.30
11229;DHT22;5671;47.936;8.716;2023-03-16T08:09:09;2.90;70.00
11229;DHT22;5671;47.936;8.716;2023-03-16T08:11:45;3.00;69.60
11229;DHT22;5671;47.936;8.716;2023-03-16T08:14:15;3.10;67.20
11229;DHT22;5671;47.936;8.716;2023-03-16T08:16:43;3.10;67.90
11229;DHT22;5671;47.936;8.716;2023-03-16T08:19:11;3.10;66.70
11229;DHT22;5671;47.936;8.716;2023-03-16T08:21:38;3.10;65.70
11229;DHT22;5671;47.936;8.716;2023-03-16T08:24:06;3.20;64.80
11229;DHT22;5671;47.936;8.716;2023-03-16T08:26:35;3.20;64.70
11229;DHT22;5671;47.936;8.716;2023-03-16T08:29:02;3.30;64.50
11229;DHT22;5671;47.936;8.716;2023-03-16T08:31:29;3.40;65.00
11229;DHT22;5671;47.936;8.716;2023-03-16T08:33:59;3.50;64.40
11229;DHT22;5671;47.936;8.716;2023-03-16T08:36:27;3.50;63.70
11229;DHT22;5671;47.936;8.716;2023-03-16T08:38:54;3.60;63.00
11229;DHT22;5671;47.936;8.716;2023-03-16T08:41:21;3.70;62.80
11229;DHT22;5671;47.936;8.716;2023-03-16T08:43:50;3.80;62.20
11229;DHT22;5671;47.936;8.716;2023-03-16T08:46:17;4.00;61.60
11229;DHT22;5671;47.936;8.716;2023-03-16T08:48:45;4.10;62.20
11229;DHT22;5671;47.936;8.716;2023-03-16T08:51:12;4.30;61.10
11229;DHT22;5671;47.936;8.716;2023-03-16T08:53:41;4.50;59.90
11229;DHT22;5671;47.936;8.716;2023-03-16T08:56:09;4.70;58.70
11229;DHT22;5671;47.936;8.716;2023-03-16T08:58:37;4.90;57.90
11229;DHT22;5671;47.936;8.716;2023-03-16T09:01:08;5.10;56.80
11229;DHT22;5671;47.936;8.716;2023-03-16T09:03:35;5.20;56.40
11229;DHT22;5671;47.936;8.716;2023-03-16T09:06:04;5.30;55.90
11229;DHT22;5671;47.936;8.716;2023-03-16T09:08:31;5.50;56.20
11229;DHT22;5671;47.936;8.716;2023-03-16T09:11:03;5.70;53.30
11229;DHT22;5671;47.936;8.716;2023-03-16T09:13:30;5.80;52.70
11229;DHT22;5671;47.936;8.716;2023-03-16T09:15:57;6.10;52.60
11229;DHT22;5671;47.936;8.716;2023-03-16T09:18:26;6.10;51.70
11229;DHT22;5671;47.936;8.716;2023-03-16T09:20:56;6.30;50.80
11229;DHT22;5671;47.936;8.716;2023-03-16T09:23:34;6.30;49.80
11229;DHT22;5671;47.936;8.716;2023-03-16T09:26:14;6.50;49.20
11229;DHT22;5671;47.936;8.716;2023-03-16T09:28:41;6.60;49.20
11229;DHT22;5671;47.936;8.716;2023-03-16T09:31:12;6.80;49.80
11229;DHT22;5671;47.936;8.716;2023-03-16T09:33:42;7.00;49.40
11229;DHT22;5671;47.936;8.716;2023-03-16T09:36:09;7.20;47.90
11229;DHT22;5671;47.936;8.716;2023-03-16T09:38:36;7.40;49.00
11229;DHT22;5671;47.936;8.716;2023-03-16T09:41:07;7.60;48.30
11229;DHT22;5671;47.936;8.716;2023-03-16T09:44:01;7.80;47.60
11229;DHT22;5671;47.936;8.716;2023-03-16T09:46:35;7.90;47.40
11229;DHT22;5671;47.936;8.716;2023-03-16T09:49:04;8.00;45.60
11229;DHT22;5671;47.936;8.716;2023-03-16T09:51:37;8.10;46.70
11229;DHT22;5671;47.936;8.716;2023-03-16T09:54:13;8.20;45.90
11229;DHT22;5671;47.936;8.716;2023-03-16T09:56:43;8.30;47.40
11229;DHT22;5671;47.936;8.716;2023-03-16T09:59:23;8.50;45.70
11229;DHT22;5671;47.936;8.716;2023-03-16T10:02:04;8.90;45.60
11229;DHT22;5671;47.936;8.716;2023-03-16T10:04:39;9.30;45.90
11229;DHT22;5671;47.936;8.716;2023-03-16T10:07:22;9.70;46.50
11229;DHT22;5671;47.936;8.716;2023-03-16T10:09:55;10.20;45.00
11229;DHT22;5671;47.936;8.716;2023-03-16T10:12:25;10.80;44.70
11229;DHT22;5671;47.936;8.716;2023-03-16T10:15:01;11.30;44.00
11229;DHT22;5671;47.936;8.716;2023-03-16T10:17:34;11.80;42.60
11229;DHT22;5671;47.936;8.716;2023-03-16T10:20:06;12.20;42.10
11229;DHT22;5671;47.936;8.716;2023-03-16T10:22:36;12.80;41.50
11229;DHT22;5671;47.936;8.716;2023-03-16T10:25:14;13.20;40.20
11229;DHT22;5671;47.936;8.716;2023-03-16T10:27:43;13.70;39.20
11229;DHT22;5671;47.936;8.716;2023-03-16T10:30:21;14.00;39.60
11229;DHT22;5671;47.936;8.716;2023-03-16T10:32:50;14.40;39.50
11229;DHT22;5671;47.936;8.716;2023-03-16T10:38:50;15.40;38.30
11229;DHT22;5671;47.936;8.716;2023-03-16T10:41:27;16.00;36.80
11229;DHT22;5671;47.936;8.716;2023-03-16T10:43:58;16.40;34.40
11229;DHT22;5671;47.936;8.716;2023-03-16T10:46:49;16.80;35.60
11229;DHT22;5671;47.936;8.716;2023-03-16T10:49:23;17.40;36.60
11229;DHT22;5671;47.936;8.716;2023-03-16T10:51:57;17.60;35.20
11229;DHT22;5671;47.936;8.716;2023-03-16T10:54:46;18.00;33.20
11229;DHT22;5671;47.936;8.716;2023-03-16T10:57:20;18.30;33.30
11229;DHT22;5671;47.936;8.716;2023-03-16T10:59:50;18.70;34.80
11229;DHT22;5671;47.936;8.716;2023-03-16T11:02:20;19.00;33.40
11229;DHT22;5671;47.936;8.716;2023-03-16T11:04:48;19.20;32.40
11229;DHT22;5671;47.936;8.716;2023-03-16T11:13:54;19.80;31.90
11229;DHT22;5671;47.936;8.716;2023-03-16T11:16:24;20.50;30.30
11229;DHT22;5671;47.936;8.716;2023-03-16T11:18:57;21.00;30.50
11229;DHT22;5671;47.936;8.716;2023-03-16T11:21:37;21.40;30.90
11229;DHT22;5671;47.936;8.716;2023-03-16T11:24:15;21.90;30.90
11229;DHT22;5671;47.936;8.716;2023-03-16T11:30:48;22.40;29.00
11229;DHT22;5671;47.936;8.716;2023-03-16T11:33:28;22.60;29.60
11229;DHT22;5671;47.936;8.716;2023-03-16T11:36:23;22.30;29.60
11229;DHT22;5671;47.936;8.716;2023-03-16T11:39:02;22.50;29.60
11229;DHT22;5671;47.936;8.716;2023-03-16T11:41:42;23.10;29.10
11229;DHT22;5671;47.936;8.716;2023-03-16T11:44:17;23.30;26.60
11229;DHT22;5671;47.936;8.716;2023-03-16T11:46:54;23.30;27.70
11229;DHT22;5671;47.936;8.716;2023-03-16T11:49:38;23.60;28.70
11229;DHT22;5671;47.936;8.716;2023-03-16T11:52:13;23.80;27.60
11229;DHT22;5671;47.936;8.716;2023-03-16T11:54:52;23.90;28.10
11229;DHT22;5671;47.936;8.716;2023-03-16T11:57:30;23.70;26.70
11229;DHT22;5671;47.936;8.716;2023-03-16T12:00:12;23.60;26.90
11229;DHT22;5671;47.936;8.716;2023-03-16T12:02:56;22.80;25.00
11229;DHT22;5671;47.936;8.716;2023-03-16T12:05:36;22.60;27.20
11229;DHT22;5671;47.936;8.716;2023-03-16T12:10:59;22.40;26.20
11229;DHT22;5671;47.936;8.716;2023-03-16T12:13:40;22.90;26.50
11229;DHT22;5671;47.936;8.716;2023-03-16T12:16:18;23.10;27.00
11229;DHT22;5671;47.936;8.716;2023-03-16T12:18:51;23.00;27.60
11229;DHT22;5671;47.936;8.716;2023-03-16T12:21:22;23.30;26.20
11229;DHT22;5671;47.936;8.716;2023-03-16T12:23:51;23.30;27.50
11229;DHT22;5671;47.936;8.716;2023-03-16T12:26:22;23.30;24.40
11229;DHT22;5671;47.936;8.716;2023-03-16T12:28:50;23.20;28.00
11229;DHT22;5671;47.936;8.716;2023-03-16T12:31:19;23.50;26.90
11229;DHT22;5671;47.936;8.716;2023-03-16T12:34:00;23.80;25.50
11229;DHT22;5671;47.936;8.716;2023-03-16T12:37:00;23.90;26.70
11229;DHT22;5671;47.936;8.716;2023-03-16T12:40:01;23.90;24.40
11229;DHT22;5671;47.936;8.716;2023-03-16T12:42:43;24.20;27.20
11229;DHT22;5671;47.936;8.716;2023-03-16T12:45:15;24.70;25.00
11229;DHT22;5671;47.936;8.716;2023-03-16T12:47:49;24.60;25.90
11229;DHT22;5671;47.936;8.716;2023-03-16T12:50:22;25.10;25.00
11229;DHT22;5671;47.936;8.716;2023-03-16T12:52:51;25.40;25.20
11229;DHT22;5671;47.936;8.716;2023-03-16T12:55:22;25.80;26.60
11229;DHT22;5671;47.936;8.716;2023-03-16T12:57:50;26.20;24.50
11229;DHT22;5671;47.936;8.716;2023-03-16T13:00:34;26.20;24.60
11229;DHT22;5671;47.936;8.716;2023-03-16T13:03:03;26.10;24.60
11229;DHT22;5671;47.936;8.716;2023-03-16T13:05:33;26.30;23.70
11229;DHT22;5671;47.936;8.716;2023-03-16T13:08:06;26.00;24.60
11229;DHT22;5671;47.936;8.716;2023-03-16T13:10:34;26.30;23.50
11229;DHT22;5671;47.936;8.716;2023-03-16T13:13:07;26.50;25.30
11229;DHT22;5671;47.936;8.716;2023-03-16T13:15:36;26.60;24.50
11229;DHT22;5671;47.936;8.716;2023-03-16T13:18:19;26.90;25.00
11229;DHT22;5671;47.936;8.716;2023-03-16T13:20:53;26.70;23.60
11229;DHT22;5671;47.936;8.716;2023-03-16T13:23:23;26.90;23.60
11229;DHT22;5671;47.936;8.716;2023-03-16T13:26:12;26.70;24.20
11229;DHT22;5671;47.936;8.716;2023-03-16T13:28:40;26.70;20.90
11229;DHT22;5671;47.936;8.716;2023-03-16T13:34:13;26.70;23.10
11229;DHT22;5671;47.936;8.716;2023-03-16T13:40:18;26.90;22.60
11229;DHT22;5671;47.936;8.716;2023-03-16T13:42:47;27.00;24.20
11229;DHT22;5671;47.936;8.716;2023-03-16T13:45:20;27.20;24.30
11229;DHT22;5671;47.936;8.716;2023-03-16T13:47:50;27.30;24.00
11229;DHT22;5671;47.936;8.716;2023-03-16T13:53:43;27.00;22.80
11229;DHT22;5671;47.936;8.716;2023-03-16T13:56:22;26.80;22.70
11229;DHT22;5671;47.936;8.716;2023-03-16T13:58:55;26.70;22.90
11229;DHT22;5671;47.936;8.716;2023-03-16T14:04:53;26.10;24.40
11229;DHT22;5671;47.936;8.716;2023-03-16T14:07:20;26.20;22.30
11229;DHT22;5671;47.936;8.716;2023-03-16T14:09:58;26.10;23.60
11229;DHT22;5671;47.936;8.716;2023-03-16T14:12:31;26.30;22.80
11229;DHT22;5671;47.936;8.716;2023-03-16T14:14:58;26.20;24.50
11229;DHT22;5671;47.936;8.716;2023-03-16T14:17:27;26.50;24.40
11229;DHT22;5671;47.936;8.716;2023-03-16T14:20:25;26.40;23.70
11229;DHT22;5671;47.936;8.716;2023-03-16T14:22:55;26.30;23.80
11229;DHT22;5671;47.936;8.716;2023-03-16T14:25:24;26.30;24.10
11229;DHT22;5671;47.936;8.716;2023-03-16T14:27:59;26.40;23.20
11229;DHT22;5671;47.936;8.716;2023-03-16T14:30:28;26.30;24.70
11229;DHT22;5671;47.936;8.716;2023-03-16T14:32:57;26.30;23.20
11229;DHT22;5671;47.936;8.716;2023-03-16T14:35:28;26.10;23.30
11229;DHT22;5671;47.936;8.716;2023-03-16T14:38:17;25.80;23.90
11229;DHT22;5671;47.936;8.716;2023-03-16T14:41:51;25.20;22.80
11229;DHT22;5671;47.936;8.716;2023-03-16T14:44:37;24.20;23.60
11229;DHT22;5671;47.936;8.716;2023-03-16T14:47:40;23.20;24.00
11229;DHT22;5671;47.936;8.716;2023-03-16T14:53:06;20.80;24.20
11229;DHT22;5671;47.936;8.716;2023-03-16T14:55:33;19.80;25.60
11229;DHT22;5671;47.936;8.716;2023-03-16T14:58:09;19.00;26.60
11229;DHT22;5671;47.936;8.716;2023-03-16T15:00:48;18.20;26.30
11229;DHT22;5671;47.936;8.716;2023-03-16T15:03:30;17.40;26.80
11229;DHT22;5671;47.936;8.716;2023-03-16T15:06:00;16.80;27.50
11229;DHT22;5671;47.936;8.716;2023-03-16T15:08:30;16.20;28.40
11229;DHT22;5671;47.936;8.716;2023-03-16T15:11:05;15.70;28.50
11229;DHT22;5671;47.936;8.716;2023-03-16T15:13:46;15.30;29.40
11229;DHT22;5671;47.936;8.716;2023-03-16T15:16:29;14.90;29.60
11229;DHT22;5671;47.936;8.716;2023-03-16T15:18:57;14.50;31.40
11229;DHT22;5671;47.936;8.716;2023-03-16T15:21:27;14.30;31.00
11229;DHT22;5671;47.936;8.716;2023-03-16T15:23:55;14.10;31.30
11229;DHT22;5671;47.936;8.716;2023-03-16T15:26:25;13.90;30.20
11229;DHT22;5671;47.936;8.716;2023-03-16T15:29:01;13.60;29.80
11229;DHT22;5671;47.936;8.716;2023-03-16T15:31:37;13.40;29.70
11229;DHT22;5671;47.936;8.716;2023-03-16T15:34:04;13.20;30.70
11229;DHT22;5671;47.936;8.716;2023-03-16T15:36:34;13.00;30.80
11229;DHT22;5671;47.936;8.716;2023-03-16T15:39:02;12.90;30.70
11229;DHT22;5671;47.936;8.716;2023-03-16T15:41:29;12.70;30.40
11229;DHT22;5671;47.936;8.716;2023-03-16T15:43:56;12.50;31.20
11229;DHT22;5671;47.936;8.716;2023-03-16T15:46:28;12.40;31.00
11229;DHT22;5671;47.936;8.716;2023-03-16T15:48:58;12.20;31.50
11229;DHT22;5671;47.936;8.716;2023-03-16T15:51:26;12.10;32.60
11229;DHT22;5671;47.936;8.716;2023-03-16T15:53:56;11.90;33.00
11229;DHT22;5671;47.936;8.716;2023-03-16T15:56:26;11.80;32.60
11229;DHT22;5671;47.936;8.716;2023-03-16T15:59:03;11.80;34.20
11229;DHT22;5671;47.936;8.716;2023-03-16T16:01:39;11.70;33.80
11229;DHT22;5671;47.936;8.716;2023-03-16T16:04:15;11.70;34.60
11229;DHT22;5671;47.936;8.716;2023-03-16T16:06:44;11.60;34.60
11229;DHT22;5671;47.936;8.716;2023-03-16T16:09:12;11.60;35.10
11229;DHT22;5671;47.936;8.716;2023-03-16T16:11:39;11.50;34.60
11229;DHT22;5671;47.936;8.716;2023-03-16T16:14:12;11.50;35.10
11229;DHT22;5671;47.936;8.716;2023-03-16T16:16:41;11.40;34.90
11229;DHT22;5671;47.936;8.716;2023-03-16T16:19:12;11.30;35.40
11229;DHT22;5671;47.936;8.716;2023-03-16T16:21:42;11.20;35.10
11229;DHT22;5671;47.936;8.716;2023-03-16T16:24:21;11.20;35.80
11229;DHT22;5671;47.936;8.716;2023-03-16T16:27:02;11.00;36.30
11229;DHT22;5671;47.936;8.716;2023-03-16T16:29:32;10.90;35.70
11229;DHT22;5671;47.936;8.716;2023-03-16T16:31:59;10.80;35.90
11229;DHT22;5671;47.936;8.716;2023-03-16T16:34:27;10.70;36.00
11229;DHT22;5671;47.936;8.716;2023-03-16T16:36:55;10.50;35.60
11229;DHT22;5671;47.936;8.716;2023-03-16T16:39:23;10.40;36.90
11229;DHT22;5671;47.936;8.716;2023-03-16T16:41:51;10.30;36.80
11229;DHT22;5671;47.936;8.716;2023-03-16T16:44:21;10.20;37.90
11229;DHT22;5671;47.936;8.716;2023-03-16T16:46:49;10.10;37.80
11229;DHT22;5671;47.936;8.716;2023-03-16T16:49:19;10.00;37.50
11229;DHT22;5671;47.936;8.716;2023-03-16T16:51:51;9.90;38.40
11229;DHT22;5671;47.936;8.716;2023-03-16T16:54:20;9.80;38.00
11229;DHT22;5671;47.936;8.716;2023-03-16T16:56:48;9.70;38.90
11229;DHT22;5671;47.936;8.716;2023-03-16T16:59:17;9.60;39.10
11229;DHT22;5671;47.936;8.716;2023-03-16T17:01:45;9.60;39.40
11229;DHT22;5671;47.936;8.716;2023-03-16T17:04:14;9.50;40.50